createdAt,value
2019-05-07T00:00:13.403Z,96.80
2019-05-07T00:03:22.110Z,96.90
2019-05-07T00:06:32.562Z,96.60
2019-05-07T00:09:43.015Z,97.00
2019-05-07T00:13:02.507Z,96.90
2019-05-07T00:16:12.797Z,96.90
2019-05-07T00:19:23.099Z,96.80
2019-05-07T00:22:32.665Z,96.70
2019-05-07T00:25:52.947Z,96.60
2019-05-07T00:29:02.266Z,96.70
2019-05-07T00:32:22.322Z,96.60
2019-05-07T00:35:35.040Z,96.50
2019-05-07T00:39:34.431Z,96.40
2019-05-07T00:43:02.673Z,96.70
2019-05-07T00:46:22.499Z,96.40
2019-05-07T00:49:42.558Z,96.60
2019-05-07T00:53:05.294Z,96.60
2019-05-07T00:56:13.911Z,96.90
2019-05-07T00:59:24.018Z,96.90
2019-05-07T01:02:32.651Z,97.00
2019-05-07T01:05:43.203Z,97.00
2019-05-07T01:08:52.561Z,97.20
2019-05-07T01:12:03.159Z,97.20
2019-05-07T01:15:12.857Z,97.20
2019-05-07T01:18:23.310Z,97.50
2019-05-07T01:21:32.633Z,97.40
2019-05-07T01:24:52.814Z,97.40
2019-05-07T01:28:02.602Z,97.40
2019-05-07T01:31:12.556Z,97.40
2019-05-07T01:34:32.132Z,97.50
2019-05-07T01:37:42.190Z,97.60
2019-05-07T01:41:02.713Z,97.70
2019-05-07T01:44:12.825Z,97.70
2019-05-07T01:47:23.624Z,97.70
2019-05-07T01:50:32.326Z,97.60
2019-05-07T01:53:42.973Z,97.70
2019-05-07T01:57:02.898Z,97.80
2019-05-07T02:00:13.084Z,97.90
2019-05-07T02:03:32.788Z,97.70
2019-05-07T02:06:59.213Z,97.70
2019-05-07T02:10:22.740Z,97.80
2019-05-07T02:13:33.732Z,97.60
2019-05-07T02:16:41.985Z,97.70
2019-05-07T02:19:52.616Z,97.40
2019-05-07T02:23:02.823Z,97.50
2019-05-07T02:26:13.325Z,97.90
2019-05-07T02:29:22.788Z,97.70
2019-05-07T02:32:43.183Z,97.70
2019-05-07T02:35:53.422Z,97.80
2019-05-07T02:39:18.094Z,97.70
2019-05-07T02:42:26.874Z,97.90
2019-05-07T02:46:20.572Z,97.90
2019-05-07T02:49:45.631Z,98.00
2019-05-07T02:52:59.777Z,97.80
2019-05-07T02:56:26.547Z,98.20
2019-05-07T02:59:35.212Z,98.40
2019-05-07T03:02:43.946Z,98.50
2019-05-07T03:05:53.796Z,98.70
2019-05-07T03:09:03.253Z,98.60
2019-05-07T03:12:13.123Z,99.20
2019-05-07T03:15:24.253Z,99.40
2019-05-07T03:18:33.468Z,99.00
2019-05-07T03:21:55.372Z,99.00
2019-05-07T03:25:10.231Z,99.10
2019-05-07T03:28:53.622Z,99.20
2019-05-07T03:32:37.809Z,99.40
2019-05-07T03:35:48.958Z,99.30
2019-05-07T03:38:57.624Z,99.30
2019-05-07T03:42:06.273Z,99.50
2019-05-07T03:45:35.074Z,99.50
2019-05-07T03:49:04.770Z,99.60
2019-05-07T03:52:14.606Z,99.70
2019-05-07T03:55:23.504Z,99.80
2019-05-07T03:58:34.002Z,99.60
2019-05-07T04:01:46.677Z,99.60
2019-05-07T04:05:06.137Z,99.70
2019-05-07T04:08:24.921Z,99.60
2019-05-07T04:11:33.842Z,99.50
2019-05-07T04:14:53.591Z,99.70
2019-05-07T04:18:03.626Z,99.50
2019-05-07T04:21:13.972Z,99.40
2019-05-07T04:24:42.905Z,99.30
2019-05-07T04:28:06.736Z,99.50
2019-05-07T04:31:15.237Z,99.50
2019-05-07T04:34:44.517Z,99.40
2019-05-07T04:37:53.495Z,99.40
2019-05-07T04:41:03.774Z,99.30
2019-05-07T04:44:14.401Z,99.50
2019-05-07T04:47:38.687Z,99.30
2019-05-07T04:50:42.981Z,98.90
2019-05-07T04:53:46.683Z,99.00
2019-05-07T04:56:55.286Z,99.00
2019-05-07T05:00:05.269Z,98.80
2019-05-07T05:03:23.823Z,98.60
2019-05-07T05:06:42.835Z,98.40
2019-05-07T05:09:53.166Z,98.40
2019-05-07T05:13:13.087Z,98.60
2019-05-07T05:16:25.996Z,98.40
2019-05-07T05:19:34.693Z,98.10
2019-05-07T05:22:53.210Z,97.80
2019-05-07T05:26:02.012Z,97.50
2019-05-07T05:29:12.103Z,97.40
2019-05-07T05:32:22.693Z,96.80
2019-05-07T05:35:32.080Z,96.70
2019-05-07T05:38:42.330Z,95.20
2019-05-07T05:42:09.286Z,94.40
2019-05-07T05:45:34.236Z,94.30
2019-05-07T05:48:43.127Z,94.60
2019-05-07T05:52:12.472Z,92.90
2019-05-07T05:55:22.674Z,91.50
2019-05-07T05:58:56.274Z,90.90
2019-05-07T06:02:23.265Z,90.60
2019-05-07T06:05:55.017Z,90.30
2019-05-07T06:09:21.906Z,89.80
2019-05-07T06:13:07.985Z,88.30
2019-05-07T06:16:21.946Z,86.50
2019-05-07T06:19:36.416Z,87.10
2019-05-07T06:23:35.736Z,84.90
2019-05-07T06:27:02.963Z,84.10
2019-05-07T06:30:12.861Z,83.80
2019-05-07T06:33:22.928Z,84.00
2019-05-07T06:36:33.468Z,83.10
2019-05-07T06:39:52.961Z,83.40
2019-05-07T06:43:21.841Z,84.10
2019-05-07T06:46:48.850Z,85.10
2019-05-07T06:49:58.232Z,85.40
2019-05-07T06:53:05.340Z,87.20
2019-05-07T06:56:24.175Z,85.50
2019-05-07T06:59:42.195Z,85.60
2019-05-07T07:03:17.867Z,85.30
2019-05-07T07:06:29.433Z,87.40
2019-05-07T07:09:53.909Z,87.50
2019-05-07T07:13:02.389Z,86.00
2019-05-07T07:16:12.702Z,83.80
2019-05-07T07:19:32.540Z,84.50
2019-05-07T07:22:42.584Z,82.20
2019-05-07T07:25:52.261Z,81.00
2019-05-07T07:29:02.033Z,82.20
2019-05-07T07:32:12.743Z,80.50
2019-05-07T07:35:22.538Z,79.60
2019-05-07T07:38:35.590Z,79.30
2019-05-07T07:41:48.145Z,79.60
2019-05-07T07:45:49.032Z,77.10
2019-05-07T07:49:07.810Z,75.30
2019-05-07T07:52:06.422Z,76.40
2019-05-07T07:55:17.786Z,76.80
2019-05-07T07:58:48.229Z,74.90
2019-05-07T08:02:05.685Z,74.10
2019-05-07T08:05:33.749Z,75.70
2019-05-07T08:08:42.538Z,74.00
2019-05-07T08:11:52.689Z,77.10
2019-05-07T08:15:14.767Z,73.90
2019-05-07T08:18:13.403Z,72.90
2019-05-07T08:21:22.896Z,72.20
2019-05-07T08:24:42.645Z,73.70
2019-05-07T08:27:53.083Z,73.40
2019-05-07T08:31:19.199Z,70.50
2019-05-07T08:34:42.873Z,69.10
2019-05-07T08:37:51.856Z,65.50
2019-05-07T08:41:02.327Z,64.30
2019-05-07T08:44:15.790Z,63.60
2019-05-07T08:47:34.527Z,65.10
2019-05-07T08:50:43.089Z,64.70
2019-05-07T08:54:05.664Z,64.20
2019-05-07T08:57:24.693Z,65.30
2019-05-07T09:00:33.195Z,64.70
2019-05-07T09:03:44.744Z,64.00
2019-05-07T09:06:53.279Z,65.60
2019-05-07T09:10:02.438Z,66.00
2019-05-07T09:13:12.572Z,65.50
2019-05-07T09:16:23.260Z,65.90
2019-05-07T09:19:32.394Z,62.40
2019-05-07T09:22:42.698Z,63.50
2019-05-07T09:25:52.246Z,62.20
2019-05-07T09:29:19.473Z,63.90
2019-05-07T09:32:37.154Z,64.90
2019-05-07T09:36:07.086Z,63.10
2019-05-07T09:39:32.312Z,62.20
2019-05-07T09:42:42.196Z,62.30
2019-05-07T09:45:52.323Z,63.10
2019-05-07T09:49:02.941Z,62.40
2019-05-07T09:52:12.301Z,59.40
2019-05-07T09:55:23.178Z,58.80
2019-05-07T09:58:36.562Z,58.90
2019-05-07T10:01:42.006Z,57.90
2019-05-07T10:04:52.651Z,56.50
2019-05-07T10:08:01.804Z,56.50
2019-05-07T10:11:12.335Z,57.10
2019-05-07T10:14:22.407Z,52.70
2019-05-07T10:17:45.880Z,51.00
2019-05-07T10:20:54.548Z,52.20
2019-05-07T10:24:03.172Z,52.80
2019-05-07T10:27:12.801Z,51.80
2019-05-07T10:30:21.965Z,48.80
2019-05-07T10:33:32.207Z,49.70
2019-05-07T10:36:52.311Z,49.70
2019-05-07T10:40:03.006Z,49.10
2019-05-07T10:43:11.659Z,51.40
2019-05-07T10:46:28.053Z,50.90
2019-05-07T10:49:42.828Z,52.70
2019-05-07T10:52:52.843Z,53.50
2019-05-07T10:56:02.517Z,56.80
2019-05-07T10:59:12.229Z,59.80
2019-05-07T11:02:26.226Z,60.00
2019-05-07T11:05:34.753Z,58.80
2019-05-07T11:08:44.597Z,55.70
2019-05-07T11:11:53.193Z,55.30
2019-05-07T11:15:02.259Z,54.30
2019-05-07T11:18:26.076Z,55.10
2019-05-07T11:21:34.637Z,54.90
2019-05-07T11:24:42.767Z,53.40
2019-05-07T11:27:52.387Z,52.30
2019-05-07T11:31:02.089Z,49.70
2019-05-07T11:34:11.916Z,49.20
2019-05-07T11:37:22.566Z,48.90
2019-05-07T11:40:34.588Z,49.50
2019-05-07T11:44:02.643Z,53.10
2019-05-07T11:47:29.297Z,56.00
2019-05-07T11:51:01.409Z,56.60
2019-05-07T11:54:12.383Z,57.50
2019-05-07T11:57:22.080Z,57.80
2019-05-07T12:00:57.430Z,56.70
2019-05-07T12:04:06.234Z,56.60
2019-05-07T12:07:14.780Z,53.60
2019-05-07T12:10:23.546Z,52.90
2019-05-07T12:13:32.448Z,50.50
2019-05-07T12:16:42.661Z,48.90
2019-05-07T12:19:52.654Z,49.30
2019-05-07T12:23:02.857Z,49.30
2019-05-07T12:26:12.765Z,47.30
2019-05-07T12:29:32.368Z,47.80
2019-05-07T12:32:49.096Z,47.20
2019-05-07T12:36:22.786Z,44.70
2019-05-07T12:39:31.959Z,44.10
2019-05-07T12:42:42.419Z,42.80
2019-05-07T12:45:52.418Z,41.10
2019-05-07T12:49:03.162Z,39.70
2019-05-07T12:52:27.051Z,39.20
2019-05-07T12:55:56.799Z,39.60
2019-05-07T12:59:05.894Z,38.00
2019-05-07T13:02:42.057Z,36.40
2019-05-07T13:05:52.117Z,35.20
2019-05-07T13:09:00.264Z,35.30
2019-05-07T13:12:19.214Z,37.40
2019-05-07T13:15:28.433Z,38.10
2019-05-07T13:18:47.288Z,40.20
2019-05-07T13:21:56.085Z,40.70
2019-05-07T13:25:03.240Z,41.60
2019-05-07T13:28:11.947Z,43.00
2019-05-07T13:31:22.857Z,44.00
2019-05-07T13:34:42.694Z,45.00
2019-05-07T13:38:11.827Z,47.70
2019-05-07T13:41:40.207Z,48.40
2019-05-07T13:44:56.751Z,50.30
2019-05-07T13:48:23.770Z,49.80
2019-05-07T13:51:33.886Z,50.30
2019-05-07T13:54:42.619Z,50.80
2019-05-07T13:57:52.412Z,52.00
2019-05-07T14:01:39.290Z,53.00
2019-05-07T14:05:04.959Z,53.50
2019-05-07T14:08:14.213Z,54.30
2019-05-07T14:11:23.055Z,53.90
2019-05-07T14:14:34.524Z,52.50
2019-05-07T14:17:42.132Z,53.20
2019-05-07T14:20:50.781Z,53.10
2019-05-07T14:23:59.402Z,53.10
2019-05-07T14:27:08.191Z,52.50
2019-05-07T14:30:17.331Z,52.50
2019-05-07T14:33:43.922Z,52.90
2019-05-07T14:37:01.946Z,53.30
2019-05-07T14:40:12.895Z,54.10
2019-05-07T14:43:43.631Z,53.90
2019-05-07T14:47:14.849Z,53.40
2019-05-07T14:50:23.521Z,53.80
2019-05-07T14:53:32.894Z,54.70
2019-05-07T14:56:51.896Z,53.20
2019-05-07T15:00:03.263Z,53.80
2019-05-07T15:03:12.629Z,54.30
2019-05-07T15:06:21.970Z,55.40
2019-05-07T15:09:32.107Z,55.20
2019-05-07T15:12:52.194Z,54.30
2019-05-07T15:16:03.119Z,53.70
2019-05-07T15:19:12.451Z,53.90
2019-05-07T15:22:26.718Z,55.00
2019-05-07T15:25:35.381Z,55.50
2019-05-07T15:28:46.066Z,54.50
2019-05-07T15:31:59.527Z,54.30
2019-05-07T15:35:09.481Z,52.20
2019-05-07T15:38:18.205Z,51.10
2019-05-07T15:41:26.891Z,51.90
2019-05-07T15:44:35.643Z,53.70
2019-05-07T15:47:47.858Z,52.30
2019-05-07T15:50:56.506Z,52.40
2019-05-07T15:54:05.329Z,53.30
2019-05-07T15:57:17.038Z,53.40
2019-05-07T16:00:37.596Z,53.90
2019-05-07T16:03:46.778Z,55.10
2019-05-07T16:06:55.874Z,54.20
2019-05-07T16:10:04.511Z,54.30
2019-05-07T16:13:15.576Z,54.30
2019-05-07T16:16:24.116Z,54.70
2019-05-07T16:19:32.783Z,54.50
2019-05-07T16:22:44.791Z,54.20
2019-05-07T16:25:55.198Z,53.30
2019-05-07T16:29:04.617Z,54.30
2019-05-07T16:32:13.614Z,54.70
2019-05-07T16:35:22.821Z,54.80
2019-05-07T16:38:32.751Z,55.30
2019-05-07T16:41:42.341Z,55.40
2019-05-07T16:44:52.189Z,55.60
2019-05-07T16:48:02.983Z,55.70
2019-05-07T16:51:09.544Z,54.50
2019-05-07T16:54:18.325Z,54.70
2019-05-07T16:57:39.122Z,54.60
2019-05-07T17:00:52.869Z,55.00
2019-05-07T17:04:18.948Z,55.30
2019-05-07T17:07:27.475Z,54.20
2019-05-07T17:10:36.279Z,55.70
2019-05-07T17:13:44.914Z,56.30
2019-05-07T17:16:53.559Z,56.10
2019-05-07T17:20:02.947Z,56.40
2019-05-07T17:23:22.651Z,57.30
2019-05-07T17:26:31.433Z,57.10
2019-05-07T17:29:40.130Z,57.30
2019-05-07T17:32:58.985Z,57.00
2019-05-07T17:36:07.541Z,57.10
2019-05-07T17:39:16.300Z,57.80
2019-05-07T17:42:24.993Z,56.40
2019-05-07T17:45:33.647Z,57.50
2019-05-07T17:48:42.801Z,58.30
2019-05-07T17:51:52.611Z,58.10
2019-05-07T17:55:03.011Z,57.80
2019-05-07T17:58:12.880Z,57.20
2019-05-07T18:01:53.639Z,57.90
2019-05-07T18:05:04.213Z,59.00
2019-05-07T18:08:12.914Z,60.40
2019-05-07T18:11:24.175Z,60.00
2019-05-07T18:14:32.314Z,60.60
2019-05-07T18:17:46.973Z,59.20
2019-05-07T18:20:55.732Z,59.70
2019-05-07T18:24:16.811Z,60.10
2019-05-07T18:27:25.796Z,63.40
2019-05-07T18:30:34.495Z,63.40
2019-05-07T18:33:48.616Z,64.10
2019-05-07T18:36:57.151Z,66.60
2019-05-07T18:40:14.177Z,66.90
2019-05-07T18:43:23.020Z,67.00
2019-05-07T18:46:32.699Z,67.70
2019-05-07T18:49:42.903Z,68.80
2019-05-07T18:52:52.312Z,70.20
2019-05-07T18:56:01.700Z,70.00
2019-05-07T18:59:12.184Z,71.40
2019-05-07T19:02:22.564Z,71.40
2019-05-07T19:05:32.415Z,73.30
2019-05-07T19:08:42.265Z,73.30
2019-05-07T19:11:52.254Z,74.60
2019-05-07T19:15:12.614Z,75.60
2019-05-07T19:18:22.986Z,76.60
2019-05-07T19:21:42.371Z,77.50
2019-05-07T19:25:03.009Z,77.70
2019-05-07T19:28:28.349Z,77.80
2019-05-07T19:31:37.059Z,78.20
2019-05-07T19:34:45.724Z,79.30
2019-05-07T19:37:54.261Z,81.00
2019-05-07T19:41:02.910Z,83.30
2019-05-07T19:44:12.676Z,84.50
2019-05-07T19:47:23.321Z,85.00
2019-05-07T19:50:42.125Z,85.30
2019-05-07T19:53:52.577Z,85.40
2019-05-07T19:57:02.743Z,85.30
2019-05-07T20:00:12.872Z,86.30
2019-05-07T20:03:22.325Z,86.70
2019-05-07T20:06:42.898Z,86.30
2019-05-07T20:09:52.440Z,87.00
2019-05-07T20:13:03.067Z,87.20
2019-05-07T20:16:15.354Z,87.90
2019-05-07T20:19:24.115Z,87.50
2019-05-07T20:22:33.309Z,87.10
2019-05-07T20:25:42.160Z,87.40
2019-05-07T20:28:52.555Z,86.80
2019-05-07T20:32:01.230Z,86.60
2019-05-07T20:35:10.001Z,85.00
2019-05-07T20:38:18.774Z,84.40
2019-05-07T20:41:27.623Z,84.30
2019-05-07T20:44:36.302Z,84.20
2019-05-07T20:47:44.968Z,83.50
2019-05-07T20:50:53.620Z,83.10
2019-05-07T20:54:39.352Z,83.70
2019-05-07T20:57:50.985Z,83.10
2019-05-07T21:00:58.611Z,82.40
2019-05-07T21:04:07.255Z,83.00
2019-05-07T21:07:15.888Z,84.90
2019-05-07T21:10:24.687Z,81.30
2019-05-07T21:13:34.961Z,80.10
2019-05-07T21:16:43.802Z,79.80
2019-05-07T21:19:52.470Z,80.40
2019-05-07T21:23:02.691Z,80.00
2019-05-07T21:26:13.120Z,81.00
2019-05-07T21:29:21.830Z,80.40
2019-05-07T21:32:42.117Z,79.90
2019-05-07T21:35:52.281Z,80.90
2019-05-07T21:39:02.278Z,82.10
2019-05-07T21:42:13.848Z,80.80
2019-05-07T21:45:23.607Z,79.70
2019-05-07T21:48:32.754Z,79.70
2019-05-07T21:51:40.797Z,80.70
2019-05-07T21:55:02.366Z,80.40
2019-05-07T21:58:35.913Z,80.30
2019-05-07T22:01:46.777Z,80.30
2019-05-07T22:05:11.912Z,79.70
2019-05-07T22:08:21.918Z,80.00
2019-05-07T22:11:32.311Z,80.00
2019-05-07T22:14:41.136Z,79.20
2019-05-07T22:18:00.056Z,79.70
2019-05-07T22:21:08.691Z,80.70
2019-05-07T22:24:17.335Z,81.00
2019-05-07T22:27:25.968Z,80.60
2019-05-07T22:30:45.410Z,81.10
2019-05-07T22:34:25.154Z,81.50
2019-05-07T22:37:33.854Z,82.50
2019-05-07T22:40:43.417Z,81.80
2019-05-07T22:44:02.665Z,82.50
2019-05-07T22:47:22.673Z,83.10
2019-05-07T22:50:33.183Z,83.30
2019-05-07T22:53:43.357Z,84.00
2019-05-07T22:57:17.522Z,83.50
2019-05-07T23:00:32.239Z,84.30
2019-05-07T23:03:42.924Z,84.40
2019-05-07T23:06:52.838Z,85.10
2019-05-07T23:10:02.859Z,85.70
2019-05-07T23:13:13.029Z,86.40
2019-05-07T23:16:23.129Z,87.00
2019-05-07T23:19:32.721Z,88.20
2019-05-07T23:22:42.838Z,87.70
2019-05-07T23:25:52.389Z,88.40
2019-05-07T23:29:11.890Z,88.30
2019-05-07T23:32:32.984Z,88.80
2019-05-07T23:35:42.182Z,89.30
2019-05-07T23:38:52.052Z,90.60
2019-05-07T23:42:07.311Z,90.10
2019-05-07T23:45:16.818Z,89.90
2019-05-07T23:48:25.578Z,90.10
2019-05-07T23:51:34.222Z,90.20
2019-05-07T23:54:42.860Z,90.20
2019-05-07T23:57:52.501Z,90.00
